TimeCST,TemperatureF,Dew PointF,Humidity,Sea Level PressureIn,VisibilityMPH,Wind Direction,Wind SpeedMPH,Gust SpeedMPH,PrecipitationIn,Events,Conditions,WindDirDegrees,DateUTC
12:58 AM,49.3,44.6,84,30.28,10.0,NW,4.6,-,N/A,,Partly Cloudy,310,2013-12-31 06:58:00
1:58 AM,49.1,44.6,84,30.29,10.0,NW,6.9,-,N/A,,Clear,320,2013-12-31 07:58:00
2:58 AM,48.2,42.8,82,30.28,10.0,NW,8.1,-,N/A,,Clear,320,2013-12-31 08:58:00
3:58 AM,47.5,42.8,84,30.28,10.0,NNW,6.9,-,N/A,,Clear,330,2013-12-31 09:58:00
4:58 AM,46.6,42.8,87,30.29,10.0,NW,5.8,-,N/A,,Clear,320,2013-12-31 10:58:00
5:28 AM,46.4,42.8,87,30.29,10.0,NNW,4.6,-,N/A,,Mostly Cloudy,330,2013-12-31 11:28:00
5:48 AM,46.4,41.0,81,30.31,10.0,NW,5.8,-,N/A,,Overcast,310,2013-12-31 11:48:00
5:58 AM,46.4,41.0,81,30.32,10.0,NW,5.8,-,N/A,,Overcast,310,2013-12-31 11:58:00
6:58 AM,45.9,42.8,89,30.33,10.0,NNW,4.6,-,N/A,,Mostly Cloudy,340,2013-12-31 12:58:00
7:28 AM,46.4,28.4,50,30.34,10.0,North,5.8,-,N/A,,Mostly Cloudy,360,2013-12-31 13:28:00
7:58 AM,45.5,26.6,48,30.36,10.0,North,8.1,-,N/A,,Overcast,360,2013-12-31 13:58:00
8:08 AM,46.4,41.0,81,30.34,10.0,North,9.2,-,N/A,,Overcast,360,2013-12-31 14:08:00
8:09 AM,46.4,14.0,27,30.34,10.0,North,9.2,-,N/A,,Overcast,360,2013-12-31 14:09:00
8:53 AM,46.4,39.2,76,30.38,10.0,North,5.8,-,N/A,,Mostly Cloudy,350,2013-12-31 14:53:00
8:54 AM,46.4,28.4,50,30.38,10.0,NNW,6.9,-,N/A,,Mostly Cloudy,340,2013-12-31 14:54:00
9:58 AM,46.9,28.9,50,30.39,10.0,NNW,10.4,-,N/A,,Mostly Cloudy,340,2013-12-31 15:58:00
10:14 AM,46.4,30.2,53,30.39,10.0,NNW,10.4,-,N/A,,Overcast,340,2013-12-31 16:14:00
10:18 AM,46.4,30.2,53,30.40,10.0,North,6.9,-,N/A,,Overcast,360,2013-12-31 16:18:00
10:38 AM,46.4,28.4,50,30.38,10.0,North,8.1,-,N/A,,Overcast,350,2013-12-31 16:38:00
10:55 AM,48.2,37.4,66,30.39,10.0,NNW,8.1,-,N/A,,Mostly Cloudy,340,2013-12-31 16:55:00
11:55 AM,48.2,37.4,66,30.35,10.0,North,8.1,-,N/A,,Overcast,10,2013-12-31 17:55:00
12:53 PM,48.2,28.4,46,30.33,10.0,NNE,8.1,-,N/A,,Scattered Clouds,20,2013-12-31 18:53:00
12:55 PM,48.2,35.6,62,30.33,10.0,North,8.1,-,N/A,,Scattered Clouds,10,2013-12-31 18:55:00
12:58 PM,47.7,28.6,48,30.34,10.0,NNE,6.9,-,N/A,,Scattered Clouds,30,2013-12-31 18:58:00
1:33 PM,46.4,3.2,17,30.33,10.0,North,5.8,-,N/A,,Mostly Cloudy,10,2013-12-31 19:33:00
1:38 PM,46.4,15.8,29,30.33,10.0,North,5.8,-,N/A,,Scattered Clouds,10,2013-12-31 19:38:00
1:55 PM,46.4,37.4,71,30.33,10.0,North,5.8,-,N/A,,Scattered Clouds,360,2013-12-31 19:55:00
1:58 PM,47.1,27.3,46,30.34,10.0,NNW,9.2,-,N/A,,Partly Cloudy,340,2013-12-31 19:58:00
2:55 PM,46.4,37.4,71,30.33,10.0,North,6.9,-,N/A,,Partly Cloudy,10,2013-12-31 20:55:00
2:58 PM,47.1,30.2,52,30.34,10.0,North,6.9,-,N/A,,Partly Cloudy,360,2013-12-31 20:58:00
3:58 PM,46.4,37.4,71,30.34,10.0,NNE,5.8,-,N/A,,Clear,20,2013-12-31 21:58:00
4:58 PM,46.4,37.4,71,30.36,10.0,North,5.8,-,N/A,,Clear,10,2013-12-31 22:58:00
5:58 PM,44.6,37.4,76,30.35,10.0,NE,4.6,-,N/A,,Clear,50,2013-12-31 23:58:00
6:58 PM,44.6,37.4,76,30.37,10.0,North,5.8,-,N/A,,Scattered Clouds,360,2014-01-01 00:58:00
7:58 PM,44.8,32.5,62,30.35,10.0,East,4.6,-,N/A,,Clear,80,2014-01-01 01:58:00
8:58 PM,44.6,33.1,64,30.37,10.0,North,5.8,-,N/A,,Partly Cloudy,360,2014-01-01 02:58:00
9:58 PM,44.4,33.8,66,30.37,10.0,SSE,2.3,-,N/A,,Mostly Cloudy,150,2014-01-01 03:58:00
10:58 PM,44.6,33.8,66,30.38,10.0,North,5.8,-,N/A,,Mostly Cloudy,350,2014-01-01 04:58:00
11:04 PM,44.6,32.0,61,30.36,10.0,North,4.6,-,N/A,,Light Drizzle,350,2014-01-01 05:04:00
11:15 PM,44.6,33.8,66,30.35,10.0,NNE,4.6,-,N/A,,Partly Cloudy,20,2014-01-01 05:15:00
11:58 PM,44.1,33.4,66,30.34,10.0,NE,3.5,-,0.00,,Overcast,40,2014-01-01 05:58:00